Kino, Arizona
Current Conditions -  °F | °C
As of 4:58 PM on Tuesday 21 Oct 2014 (Local Time) from KDMA Reporting Station
Clear Clear  
Wind Chill: 82°   Ceiling: Unl
Heat Index: 82°   Visibility: 10mi
Dew Point: 41°   Wind: 6mph
Humidity: 23%   Direction: 290°WNW
Pressure: 29.86"   Gusts: NA
Location:  32.2724°N, 110.993°W
Report Text: KDMA 212358Z AUTO 29005KT 10SM CLR 28/05 A2986 RMK AO2 SLP074 T02760049 10283 20256 57006 $
Loading
Personal Weather Stations






























Interactive Weather Map
Tropical Storm Tracking
New forecast layout! Learn more

10-Day Weather Forecast

Advertisements
Track Severe Weather on mobile